Pittsburgh, PA (15229)

11:41 AM EST on March 06, 2015 (GMT -0500)
Brighton Heights | Change Station
CLOSE
Current Station
Personal Weather Station
Location: Pittsburgh, PA
Elevation: 906 ft
Nearby Weather Stations

Elev 906 ft 40.48 °N, 80.04 °W | Updated 5 minutes ago

Clear
Clear
19.4 °F
Feels Like 19 °F
N
1.7
Wind Variable Wind from SSW

Today
High -- | Low -- °F
--% Chance of Precip.
Yesterday
High -- | Low -- °F
Precip. -- in
6:46 AM 6:16 PM
Full, 99% visible
Pressure 30.59 in
Visibility 10.0 miles
Clouds Few 25000 ft
Windchill 19 °F
Dew Point 6 °F
Humidity 56%
Rainfall in
Snow Depth Not available.
UV 5 out of 12
Pollen .30 out of 12
Air Quality Not available.
Flu Activity Not available.
METAR KPIT 061551Z 16007KT 10SM FEW250 M09/M16 A3049 RMK AO2 SLP357 T10941161 $

More Conditions Fewer Conditions

Pressure 30.59 in
Visibility 10.0 miles
Clouds Few 25000 ft
Windchill 19 °F
Dew Point 6 °F
Humidity 56%
Rainfall in
Snow Depth Not available.
UV 5 out of 12
Pollen .30 out of 12
Air Quality Not available.
Flu Activity Not available.
METAR KPIT 061551Z 16007KT 10SM FEW250 M09/M16 A3049 RMK AO2 SLP357 T10941161 $

More Conditions Fewer Conditions

10-Day Weather Forecast

Almanac

Astronomy

Mar. 06, 2015 Rise Set
Actual Time
Civil Twilight
Nautical Twilight
Astronomical Twilight
Moon
Length of Visible Light
Length of Day
Tomorrow will be .
, % of the Moon is Illuminated

Today's Extremes

State Highs State Lows

Community

WunderPhotos

Upload Photos

1,803,336 photos uploaded!

WunderBlogs® & News

Nearby

Air Quality

  Air Quality AQ Index Pollutant
Not available.

Snow Depth

Station Depth Elevation

Earthquake Activity

City Distance Mag. Time & Date
Minimum magnitude displayed is 2.5.

Coastal Water Temperatures

Place Temperature

Nearby Weather Stations